sensor_id;sensor_type;location;lat;lon;timestamp;temperature;humidity
2899;DHT22;1459;50.864;6.438;2022-07-17T00:00:25;15.10;99.90
2899;DHT22;1459;50.864;6.438;2022-07-17T00:02:52;15.10;99.90
2899;DHT22;1459;50.864;6.438;2022-07-17T00:05:20;15.10;99.90
2899;DHT22;1459;50.864;6.438;2022-07-17T00:07:48;15.00;99.90
2899;DHT22;1459;50.864;6.438;2022-07-17T00:10:16;15.00;99.90
2899;DHT22;1459;50.864;6.438;2022-07-17T00:12:43;15.00;99.90
2899;DHT22;1459;50.864;6.438;2022-07-17T00:15:10;15.00;99.90
2899;DHT22;1459;50.864;6.438;2022-07-17T00:17:38;15.00;99.90
2899;DHT22;1459;50.864;6.438;2022-07-17T00:20:06;15.00;99.90
2899;DHT22;1459;50.864;6.438;2022-07-17T00:22:34;15.10;99.90
2899;DHT22;1459;50.864;6.438;2022-07-17T00:25:03;15.10;99.90
2899;DHT22;1459;50.864;6.438;2022-07-17T00:27:30;15.00;99.90
2899;DHT22;1459;50.864;6.438;2022-07-17T00:29:57;14.90;99.90
2899;DHT22;1459;50.864;6.438;2022-07-17T00:32:24;14.90;99.90
2899;DHT22;1459;50.864;6.438;2022-07-17T00:34:51;14.80;99.90
2899;DHT22;1459;50.864;6.438;2022-07-17T00:37:18;14.80;99.90
2899;DHT22;1459;50.864;6.438;2022-07-17T00:39:45;14.70;99.90
2899;DHT22;1459;50.864;6.438;2022-07-17T00:42:15;14.60;99.90
2899;DHT22;1459;50.864;6.438;2022-07-17T00:44:43;14.50;99.90
2899;DHT22;1459;50.864;6.438;2022-07-17T00:47:12;14.50;99.90
2899;DHT22;1459;50.864;6.438;2022-07-17T00:49:39;14.50;99.90
2899;DHT22;1459;50.864;6.438;2022-07-17T00:52:06;14.50;99.90
2899;DHT22;1459;50.864;6.438;2022-07-17T00:54:35;14.40;99.90
2899;DHT22;1459;50.864;6.438;2022-07-17T00:57:06;14.30;99.90
2899;DHT22;1459;50.864;6.438;2022-07-17T00:59:36;14.30;99.90
2899;DHT22;1459;50.864;6.438;2022-07-17T01:02:03;14.20;99.90
2899;DHT22;1459;50.864;6.438;2022-07-17T01:04:31;14.20;99.90
2899;DHT22;1459;50.864;6.438;2022-07-17T01:06:58;14.10;99.90
2899;DHT22;1459;50.864;6.438;2022-07-17T01:09:26;14.10;99.90
2899;DHT22;1459;50.864;6.438;2022-07-17T01:11:54;14.00;99.90
2899;DHT22;1459;50.864;6.438;2022-07-17T01:14:22;14.00;99.90
2899;DHT22;1459;50.864;6.438;2022-07-17T01:16:52;13.90;99.90
2899;DHT22;1459;50.864;6.438;2022-07-17T01:19:19;13.90;99.90
2899;DHT22;1459;50.864;6.438;2022-07-17T01:21:49;13.80;99.90
2899;DHT22;1459;50.864;6.438;2022-07-17T01:24:17;13.80;99.90
2899;DHT22;1459;50.864;6.438;2022-07-17T01:26:47;13.80;99.90
2899;DHT22;1459;50.864;6.438;2022-07-17T01:29:15;13.80;99.90
2899;DHT22;1459;50.864;6.438;2022-07-17T01:31:43;13.70;99.90
2899;DHT22;1459;50.864;6.438;2022-07-17T01:34:12;13.70;99.90
2899;DHT22;1459;50.864;6.438;2022-07-17T01:36:39;13.60;99.90
2899;DHT22;1459;50.864;6.438;2022-07-17T01:39:08;13.60;99.90
2899;DHT22;1459;50.864;6.438;2022-07-17T01:41:35;13.60;99.90
2899;DHT22;1459;50.864;6.438;2022-07-17T01:44:03;13.50;99.90
2899;DHT22;1459;50.864;6.438;2022-07-17T01:46:32;13.50;99.90
2899;DHT22;1459;50.864;6.438;2022-07-17T01:48:59;13.50;99.90
2899;DHT22;1459;50.864;6.438;2022-07-17T01:51:28;13.40;99.90
2899;DHT22;1459;50.864;6.438;2022-07-17T01:53:55;13.40;99.90
2899;DHT22;1459;50.864;6.438;2022-07-17T01:56:23;13.40;99.90
2899;DHT22;1459;50.864;6.438;2022-07-17T01:58:50;13.30;99.90
2899;DHT22;1459;50.864;6.438;2022-07-17T02:01:17;13.20;99.90
2899;DHT22;1459;50.864;6.438;2022-07-17T02:03:44;13.10;99.90
2899;DHT22;1459;50.864;6.438;2022-07-17T02:06:11;13.10;99.90
2899;DHT22;1459;50.864;6.438;2022-07-17T02:08:39;13.00;99.90
2899;DHT22;1459;50.864;6.438;2022-07-17T02:11:06;13.00;99.90
2899;DHT22;1459;50.864;6.438;2022-07-17T02:13:35;13.00;99.90
2899;DHT22;1459;50.864;6.438;2022-07-17T02:16:03;12.90;99.90
2899;DHT22;1459;50.864;6.438;2022-07-17T02:18:30;12.90;99.90
2899;DHT22;1459;50.864;6.438;2022-07-17T02:20:57;12.80;99.90
2899;DHT22;1459;50.864;6.438;2022-07-17T02:23:24;12.80;99.90
2899;DHT22;1459;50.864;6.438;2022-07-17T02:25:51;12.80;99.90
2899;DHT22;1459;50.864;6.438;2022-07-17T02:28:17;12.80;99.90
2899;DHT22;1459;50.864;6.438;2022-07-17T02:30:46;12.70;99.90
2899;DHT22;1459;50.864;6.438;2022-07-17T02:33:13;12.70;99.90
2899;DHT22;1459;50.864;6.438;2022-07-17T02:35:40;12.70;99.90
2899;DHT22;1459;50.864;6.438;2022-07-17T02:38:07;12.70;99.90
2899;DHT22;1459;50.864;6.438;2022-07-17T02:40:34;12.70;99.90
2899;DHT22;1459;50.864;6.438;2022-07-17T02:43:01;12.60;99.90
2899;DHT22;1459;50.864;6.438;2022-07-17T02:45:28;12.60;99.90
2899;DHT22;1459;50.864;6.438;2022-07-17T02:47:57;12.60;99.90
2899;DHT22;1459;50.864;6.438;2022-07-17T02:50:24;12.60;99.90
2899;DHT22;1459;50.864;6.438;2022-07-17T02:52:51;12.60;99.90
2899;DHT22;1459;50.864;6.438;2022-07-17T02:55:18;12.50;99.90
2899;DHT22;1459;50.864;6.438;2022-07-17T02:57:45;12.50;99.90
2899;DHT22;1459;50.864;6.438;2022-07-17T03:00:15;12.50;99.90
2899;DHT22;1459;50.864;6.438;2022-07-17T03:02:42;12.50;99.90
2899;DHT22;1459;50.864;6.438;2022-07-17T03:05:12;12.50;99.90
2899;DHT22;1459;50.864;6.438;2022-07-17T03:07:39;12.50;99.90
2899;DHT22;1459;50.864;6.438;2022-07-17T03:10:07;12.40;99.90
2899;DHT22;1459;50.864;6.438;2022-07-17T03:12:34;12.40;99.90
2899;DHT22;1459;50.864;6.438;2022-07-17T03:15:02;12.40;99.90
2899;DHT22;1459;50.864;6.438;2022-07-17T03:17:29;12.40;99.90
2899;DHT22;1459;50.864;6.438;2022-07-17T03:19:56;12.30;99.90
2899;DHT22;1459;50.864;6.438;2022-07-17T03:22:24;12.30;99.90
2899;DHT22;1459;50.864;6.438;2022-07-17T03:24:51;12.30;99.90
2899;DHT22;1459;50.864;6.438;2022-07-17T03:27:19;12.20;99.90
2899;DHT22;1459;50.864;6.438;2022-07-17T03:29:46;12.20;99.90
2899;DHT22;1459;50.864;6.438;2022-07-17T03:32:13;12.20;99.90
2899;DHT22;1459;50.864;6.438;2022-07-17T03:34:40;12.10;99.90
2899;DHT22;1459;50.864;6.438;2022-07-17T03:37:07;12.10;99.90
2899;DHT22;1459;50.864;6.438;2022-07-17T03:39:35;12.10;99.90
2899;DHT22;1459;50.864;6.438;2022-07-17T03:42:04;12.10;99.90
2899;DHT22;1459;50.864;6.438;2022-07-17T03:44:31;12.00;99.90
2899;DHT22;1459;50.864;6.438;2022-07-17T03:46:58;12.00;99.90
2899;DHT22;1459;50.864;6.438;2022-07-17T03:49:25;12.00;99.90
2899;DHT22;1459;50.864;6.438;2022-07-17T03:51:52;12.00;99.90
2899;DHT22;1459;50.864;6.438;2022-07-17T03:54:19;12.10;99.90
2899;DHT22;1459;50.864;6.438;2022-07-17T03:56:47;12.10;99.90
2899;DHT22;1459;50.864;6.438;2022-07-17T03:59:14;12.00;99.90
2899;DHT22;1459;50.864;6.438;2022-07-17T04:01:42;12.00;99.90
2899;DHT22;1459;50.864;6.438;2022-07-17T04:04:09;11.90;99.90
2899;DHT22;1459;50.864;6.438;2022-07-17T04:06:39;11.90;99.90
2899;DHT22;1459;50.864;6.438;2022-07-17T04:09:06;11.90;99.90
2899;DHT22;1459;50.864;6.438;2022-07-17T04:11:33;11.90;99.90
2899;DHT22;1459;50.864;6.438;2022-07-17T04:14:01;11.80;99.90
2899;DHT22;1459;50.864;6.438;2022-07-17T04:16:28;11.80;99.90
2899;DHT22;1459;50.864;6.438;2022-07-17T04:18:55;11.80;99.90
2899;DHT22;1459;50.864;6.438;2022-07-17T04:21:22;11.70;99.90
2899;DHT22;1459;50.864;6.438;2022-07-17T04:23:49;11.80;99.90
2899;DHT22;1459;50.864;6.438;2022-07-17T04:26:16;11.90;99.90
2899;DHT22;1459;50.864;6.438;2022-07-17T04:28:43;11.90;99.90
2899;DHT22;1459;50.864;6.438;2022-07-17T04:31:12;11.90;99.90
2899;DHT22;1459;50.864;6.438;2022-07-17T04:33:39;11.90;99.90
2899;DHT22;1459;50.864;6.438;2022-07-17T04:36:06;12.00;99.90
2899;DHT22;1459;50.864;6.438;2022-07-17T04:38:33;12.00;99.90
2899;DHT22;1459;50.864;6.438;2022-07-17T04:41:00;12.00;99.90
2899;DHT22;1459;50.864;6.438;2022-07-17T04:43:29;12.10;99.90
2899;DHT22;1459;50.864;6.438;2022-07-17T04:45:56;12.10;99.90
2899;DHT22;1459;50.864;6.438;2022-07-17T04:48:24;12.20;99.90
2899;DHT22;1459;50.864;6.438;2022-07-17T04:50:51;12.30;99.90
2899;DHT22;1459;50.864;6.438;2022-07-17T04:53:18;12.30;99.90
2899;DHT22;1459;50.864;6.438;2022-07-17T04:55:45;12.40;99.90
2899;DHT22;1459;50.864;6.438;2022-07-17T04:58:12;12.40;99.90
2899;DHT22;1459;50.864;6.438;2022-07-17T05:00:39;12.50;99.90
2899;DHT22;1459;50.864;6.438;2022-07-17T05:03:06;12.60;99.90
2899;DHT22;1459;50.864;6.438;2022-07-17T05:05:34;12.70;99.90
2899;DHT22;1459;50.864;6.438;2022-07-17T05:08:02;12.80;99.90
2899;DHT22;1459;50.864;6.438;2022-07-17T05:10:29;12.90;99.90
2899;DHT22;1459;50.864;6.438;2022-07-17T05:12:56;13.00;99.90
2899;DHT22;1459;50.864;6.438;2022-07-17T05:15:23;13.10;99.90
2899;DHT22;1459;50.864;6.438;2022-07-17T05:17:50;13.20;99.90
2899;DHT22;1459;50.864;6.438;2022-07-17T05:20:17;13.30;99.90
2899;DHT22;1459;50.864;6.438;2022-07-17T05:22:45;13.40;99.90
2899;DHT22;1459;50.864;6.438;2022-07-17T05:25:12;13.60;99.90
2899;DHT22;1459;50.864;6.438;2022-07-17T05:27:39;13.70;99.90
2899;DHT22;1459;50.864;6.438;2022-07-17T05:30:07;13.90;99.90
2899;DHT22;1459;50.864;6.438;2022-07-17T05:32:34;14.00;99.90
2899;DHT22;1459;50.864;6.438;2022-07-17T05:35:01;14.20;99.90
2899;DHT22;1459;50.864;6.438;2022-07-17T05:37:28;14.40;99.90
2899;DHT22;1459;50.864;6.438;2022-07-17T05:42:24;14.70;99.90
2899;DHT22;1459;50.864;6.438;2022-07-17T05:44:51;14.90;99.90
2899;DHT22;1459;50.864;6.438;2022-07-17T05:47:18;15.00;99.90
2899;DHT22;1459;50.864;6.438;2022-07-17T05:49:45;15.20;99.90
2899;DHT22;1459;50.864;6.438;2022-07-17T05:52:12;15.30;99.90
2899;DHT22;1459;50.864;6.438;2022-07-17T05:54:39;15.40;99.90
2899;DHT22;1459;50.864;6.438;2022-07-17T05:57:07;15.50;99.90
2899;DHT22;1459;50.864;6.438;2022-07-17T05:59:34;15.60;99.90
2899;DHT22;1459;50.864;6.438;2022-07-17T06:02:01;15.70;99.90
2899;DHT22;1459;50.864;6.438;2022-07-17T06:04:28;15.70;99.90
2899;DHT22;1459;50.864;6.438;2022-07-17T06:06:55;15.80;99.90
2899;DHT22;1459;50.864;6.438;2022-07-17T06:09:22;15.90;99.90
2899;DHT22;1459;50.864;6.438;2022-07-17T06:11:49;15.90;99.90
2899;DHT22;1459;50.864;6.438;2022-07-17T06:14:18;16.00;99.90
2899;DHT22;1459;50.864;6.438;2022-07-17T06:16:45;16.10;99.90
2899;DHT22;1459;50.864;6.438;2022-07-17T06:19:12;16.10;99.90
2899;DHT22;1459;50.864;6.438;2022-07-17T06:21:39;16.20;99.90
2899;DHT22;1459;50.864;6.438;2022-07-17T06:24:06;16.30;99.90
2899;DHT22;1459;50.864;6.438;2022-07-17T06:29:00;16.40;99.90
2899;DHT22;1459;50.864;6.438;2022-07-17T06:33:56;16.70;99.90
2899;DHT22;1459;50.864;6.438;2022-07-17T06:36:23;16.80;99.90
2899;DHT22;1459;50.864;6.438;2022-07-17T06:38:50;16.80;99.90
2899;DHT22;1459;50.864;6.438;2022-07-17T06:41:17;16.90;99.90
2899;DHT22;1459;50.864;6.438;2022-07-17T06:43:44;17.00;99.90
2899;DHT22;1459;50.864;6.438;2022-07-17T06:46:11;17.10;99.90
2899;DHT22;1459;50.864;6.438;2022-07-17T06:48:40;17.20;99.90
2899;DHT22;1459;50.864;6.438;2022-07-17T06:51:07;17.30;99.90
2899;DHT22;1459;50.864;6.438;2022-07-17T06:53:34;17.40;99.90
2899;DHT22;1459;50.864;6.438;2022-07-17T06:56:01;17.50;99.90
2899;DHT22;1459;50.864;6.438;2022-07-17T06:58:28;17.60;99.90
2899;DHT22;1459;50.864;6.438;2022-07-17T07:00:55;17.70;99.90
2899;DHT22;1459;50.864;6.438;2022-07-17T07:03:22;17.80;99.90
2899;DHT22;1459;50.864;6.438;2022-07-17T07:05:50;17.90;99.90
2899;DHT22;1459;50.864;6.438;2022-07-17T07:08:17;18.00;99.90
2899;DHT22;1459;50.864;6.438;2022-07-17T07:10:44;18.10;99.90
2899;DHT22;1459;50.864;6.438;2022-07-17T07:13:11;18.10;99.90
2899;DHT22;1459;50.864;6.438;2022-07-17T07:15:39;18.20;99.90
2899;DHT22;1459;50.864;6.438;2022-07-17T07:18:06;18.30;99.90
2899;DHT22;1459;50.864;6.438;2022-07-17T07:23:01;18.40;99.90
2899;DHT22;1459;50.864;6.438;2022-07-17T07:25:29;18.50;99.90
2899;DHT22;1459;50.864;6.438;2022-07-17T07:27:56;18.50;99.90
2899;DHT22;1459;50.864;6.438;2022-07-17T07:30:23;18.60;99.90
2899;DHT22;1459;50.864;6.438;2022-07-17T07:32:50;18.70;99.90
2899;DHT22;1459;50.864;6.438;2022-07-17T07:35:17;18.80;99.90
2899;DHT22;1459;50.864;6.438;2022-07-17T07:37:44;18.90;99.90
2899;DHT22;1459;50.864;6.438;2022-07-17T07:40:15;19.00;99.90
2899;DHT22;1459;50.864;6.438;2022-07-17T07:42:42;19.10;99.90
2899;DHT22;1459;50.864;6.438;2022-07-17T07:45:09;19.30;99.90
2899;DHT22;1459;50.864;6.438;2022-07-17T07:47:40;19.30;99.90
2899;DHT22;1459;50.864;6.438;2022-07-17T07:50:08;19.40;99.90
2899;DHT22;1459;50.864;6.438;2022-07-17T07:52:35;19.50;99.90
2899;DHT22;1459;50.864;6.438;2022-07-17T07:55:03;19.60;99.90
2899;DHT22;1459;50.864;6.438;2022-07-17T07:57:31;19.60;99.90
2899;DHT22;1459;50.864;6.438;2022-07-17T07:59:58;19.60;99.90
2899;DHT22;1459;50.864;6.438;2022-07-17T08:02:25;19.70;99.90
2899;DHT22;1459;50.864;6.438;2022-07-17T08:04:52;19.70;99.90
2899;DHT22;1459;50.864;6.438;2022-07-17T08:07:19;19.80;99.90
2899;DHT22;1459;50.864;6.438;2022-07-17T08:09:46;19.90;99.90
2899;DHT22;1459;50.864;6.438;2022-07-17T08:12:14;20.00;99.90
2899;DHT22;1459;50.864;6.438;2022-07-17T08:14:42;20.10;99.90
2899;DHT22;1459;50.864;6.438;2022-07-17T08:17:09;20.20;99.90
2899;DHT22;1459;50.864;6.438;2022-07-17T08:19:36;20.20;99.90
2899;DHT22;1459;50.864;6.438;2022-07-17T08:22:03;20.30;99.90
2899;DHT22;1459;50.864;6.438;2022-07-17T08:24:30;20.40;99.90
2899;DHT22;1459;50.864;6.438;2022-07-17T08:26:58;20.50;99.90
2899;DHT22;1459;50.864;6.438;2022-07-17T08:29:25;20.60;99.90
2899;DHT22;1459;50.864;6.438;2022-07-17T08:31:53;20.70;99.90
2899;DHT22;1459;50.864;6.438;2022-07-17T08:34:21;20.60;99.90
2899;DHT22;1459;50.864;6.438;2022-07-17T08:36:48;20.70;99.90
2899;DHT22;1459;50.864;6.438;2022-07-17T08:39:15;20.80;99.90
2899;DHT22;1459;50.864;6.438;2022-07-17T08:41:42;20.90;99.90
2899;DHT22;1459;50.864;6.438;2022-07-17T08:44:12;21.00;99.90
2899;DHT22;1459;50.864;6.438;2022-07-17T08:46:39;21.10;99.90
2899;DHT22;1459;50.864;6.438;2022-07-17T08:49:08;21.20;99.90
2899;DHT22;1459;50.864;6.438;2022-07-17T08:51:38;21.30;99.90
2899;DHT22;1459;50.864;6.438;2022-07-17T08:54:06;21.30;99.90
2899;DHT22;1459;50.864;6.438;2022-07-17T08:56:33;21.30;99.90
2899;DHT22;1459;50.864;6.438;2022-07-17T08:59:00;21.40;99.90
2899;DHT22;1459;50.864;6.438;2022-07-17T09:01:27;21.50;99.90
2899;DHT22;1459;50.864;6.438;2022-07-17T09:03:55;21.60;99.90
2899;DHT22;1459;50.864;6.438;2022-07-17T09:06:24;21.60;99.90
2899;DHT22;1459;50.864;6.438;2022-07-17T09:09:01;21.70;99.90
2899;DHT22;1459;50.864;6.438;2022-07-17T09:11:28;21.80;99.90
2899;DHT22;1459;50.864;6.438;2022-07-17T09:13:56;21.80;99.90
2899;DHT22;1459;50.864;6.438;2022-07-17T09:16:23;21.90;99.90
2899;DHT22;1459;50.864;6.438;2022-07-17T09:18:52;22.00;99.50
2899;DHT22;1459;50.864;6.438;2022-07-17T09:21:24;22.10;99.90
2899;DHT22;1459;50.864;6.438;2022-07-17T09:23:59;22.20;99.60
2899;DHT22;1459;50.864;6.438;2022-07-17T09:26:27;22.20;98.90
2899;DHT22;1459;50.864;6.438;2022-07-17T09:28:55;22.20;98.30
2899;DHT22;1459;50.864;6.438;2022-07-17T09:31:26;22.20;98.20
2899;DHT22;1459;50.864;6.438;2022-07-17T09:33:53;22.20;98.20
2899;DHT22;1459;50.864;6.438;2022-07-17T09:36:24;22.40;97.90
2899;DHT22;1459;50.864;6.438;2022-07-17T09:38:53;22.40;98.00
2899;DHT22;1459;50.864;6.438;2022-07-17T09:41:23;22.50;98.40
2899;DHT22;1459;50.864;6.438;2022-07-17T09:43:52;22.50;97.80
2899;DHT22;1459;50.864;6.438;2022-07-17T09:46:21;22.60;97.30
2899;DHT22;1459;50.864;6.438;2022-07-17T09:48:50;22.60;97.80
2899;DHT22;1459;50.864;6.438;2022-07-17T09:51:20;22.70;95.90
2899;DHT22;1459;50.864;6.438;2022-07-17T09:53:50;22.80;96.10
2899;DHT22;1459;50.864;6.438;2022-07-17T09:56:18;22.70;95.60
2899;DHT22;1459;50.864;6.438;2022-07-17T09:58:49;22.80;95.90
2899;DHT22;1459;50.864;6.438;2022-07-17T10:01:17;22.90;95.10
2899;DHT22;1459;50.864;6.438;2022-07-17T10:03:44;22.90;95.30
2899;DHT22;1459;50.864;6.438;2022-07-17T10:06:15;23.10;94.50
2899;DHT22;1459;50.864;6.438;2022-07-17T10:08:42;23.20;94.40
2899;DHT22;1459;50.864;6.438;2022-07-17T10:11:09;23.20;94.20
2899;DHT22;1459;50.864;6.438;2022-07-17T10:13:38;23.20;93.90
2899;DHT22;1459;50.864;6.438;2022-07-17T10:16:07;23.30;93.80
2899;DHT22;1459;50.864;6.438;2022-07-17T10:18:39;23.20;93.10
2899;DHT22;1459;50.864;6.438;2022-07-17T10:21:15;23.30;93.70
2899;DHT22;1459;50.864;6.438;2022-07-17T10:23:46;23.30;93.10
2899;DHT22;1459;50.864;6.438;2022-07-17T10:28:43;23.40;93.60
2899;DHT22;1459;50.864;6.438;2022-07-17T10:31:22;23.50;93.10
2899;DHT22;1459;50.864;6.438;2022-07-17T10:33:57;23.60;92.40
2899;DHT22;1459;50.864;6.438;2022-07-17T10:39:10;23.70;91.30
2899;DHT22;1459;50.864;6.438;2022-07-17T10:41:38;23.80;91.70
2899;DHT22;1459;50.864;6.438;2022-07-17T10:44:05;23.90;92.00
2899;DHT22;1459;50.864;6.438;2022-07-17T10:46:33;24.00;91.90
2899;DHT22;1459;50.864;6.438;2022-07-17T10:49:01;24.10;90.90
2899;DHT22;1459;50.864;6.438;2022-07-17T10:51:29;24.10;90.90
2899;DHT22;1459;50.864;6.438;2022-07-17T10:53:57;24.10;90.60
2899;DHT22;1459;50.864;6.438;2022-07-17T10:56:25;24.20;90.40
2899;DHT22;1459;50.864;6.438;2022-07-17T10:58:53;24.20;90.70
2899;DHT22;1459;50.864;6.438;2022-07-17T11:01:21;24.40;91.20
2899;DHT22;1459;50.864;6.438;2022-07-17T11:03:51;24.50;91.30
2899;DHT22;1459;50.864;6.438;2022-07-17T11:06:19;24.50;90.70
2899;DHT22;1459;50.864;6.438;2022-07-17T11:08:49;24.60;90.70
2899;DHT22;1459;50.864;6.438;2022-07-17T11:11:18;24.60;89.70
2899;DHT22;1459;50.864;6.438;2022-07-17T11:13:45;24.60;89.80
2899;DHT22;1459;50.864;6.438;2022-07-17T11:16:13;24.50;89.70
2899;DHT22;1459;50.864;6.438;2022-07-17T11:18:51;24.50;89.60
2899;DHT22;1459;50.864;6.438;2022-07-17T11:21:18;24.50;87.50
2899;DHT22;1459;50.864;6.438;2022-07-17T11:23:51;24.60;90.20
2899;DHT22;1459;50.864;6.438;2022-07-17T11:26:19;24.70;88.80
2899;DHT22;1459;50.864;6.438;2022-07-17T11:28:48;24.70;87.80
2899;DHT22;1459;50.864;6.438;2022-07-17T11:31:17;24.80;86.70
2899;DHT22;1459;50.864;6.438;2022-07-17T11:33:51;24.70;86.40
2899;DHT22;1459;50.864;6.438;2022-07-17T11:36:27;24.80;84.80
2899;DHT22;1459;50.864;6.438;2022-07-17T11:38:55;24.70;84.40
2899;DHT22;1459;50.864;6.438;2022-07-17T11:41:31;24.70;84.70
2899;DHT22;1459;50.864;6.438;2022-07-17T11:43:59;24.70;86.80
2899;DHT22;1459;50.864;6.438;2022-07-17T11:46:28;24.80;84.70
2899;DHT22;1459;50.864;6.438;2022-07-17T11:48:57;24.90;84.80
2899;DHT22;1459;50.864;6.438;2022-07-17T11:51:37;24.90;83.70
2899;DHT22;1459;50.864;6.438;2022-07-17T11:54:05;24.90;83.60
2899;DHT22;1459;50.864;6.438;2022-07-17T11:56:32;24.90;82.90
2899;DHT22;1459;50.864;6.438;2022-07-17T11:59:00;24.90;84.00
2899;DHT22;1459;50.864;6.438;2022-07-17T12:01:29;25.00;82.10
2899;DHT22;1459;50.864;6.438;2022-07-17T12:03:59;25.10;82.20
2899;DHT22;1459;50.864;6.438;2022-07-17T12:06:26;25.10;79.10
2899;DHT22;1459;50.864;6.438;2022-07-17T12:08:53;25.00;78.60
2899;DHT22;1459;50.864;6.438;2022-07-17T12:11:21;25.00;78.20
2899;DHT22;1459;50.864;6.438;2022-07-17T12:13:48;25.10;77.80
2899;DHT22;1459;50.864;6.438;2022-07-17T12:16:27;25.10;76.00
2899;DHT22;1459;50.864;6.438;2022-07-17T12:18:59;25.10;75.20
2899;DHT22;1459;50.864;6.438;2022-07-17T12:21:29;25.10;74.60
2899;DHT22;1459;50.864;6.438;2022-07-17T12:23:58;25.10;71.60
2899;DHT22;1459;50.864;6.438;2022-07-17T12:26:26;25.10;72.40
2899;DHT22;1459;50.864;6.438;2022-07-17T12:28:53;25.20;72.60
2899;DHT22;1459;50.864;6.438;2022-07-17T12:31:21;25.30;68.10
2899;DHT22;1459;50.864;6.438;2022-07-17T12:33:51;25.20;69.70
2899;DHT22;1459;50.864;6.438;2022-07-17T12:36:20;25.30;69.50
2899;DHT22;1459;50.864;6.438;2022-07-17T12:38:48;25.40;70.10
2899;DHT22;1459;50.864;6.438;2022-07-17T12:41:15;25.40;69.10
2899;DHT22;1459;50.864;6.438;2022-07-17T12:43:43;25.50;70.00
2899;DHT22;1459;50.864;6.438;2022-07-17T12:46:10;25.70;71.10
2899;DHT22;1459;50.864;6.438;2022-07-17T12:48:37;25.70;70.20
2899;DHT22;1459;50.864;6.438;2022-07-17T12:51:07;25.80;69.80
2899;DHT22;1459;50.864;6.438;2022-07-17T12:53:39;25.80;70.80
2899;DHT22;1459;50.864;6.438;2022-07-17T12:56:09;25.90;71.10
2899;DHT22;1459;50.864;6.438;2022-07-17T12:58:36;26.00;70.90
2899;DHT22;1459;50.864;6.438;2022-07-17T13:01:04;26.10;69.10
2899;DHT22;1459;50.864;6.438;2022-07-17T13:03:31;26.20;70.60
2899;DHT22;1459;50.864;6.438;2022-07-17T13:05:59;26.20;68.50
2899;DHT22;1459;50.864;6.438;2022-07-17T13:08:27;26.30;67.00
2899;DHT22;1459;50.864;6.438;2022-07-17T13:10:55;26.30;67.00
2899;DHT22;1459;50.864;6.438;2022-07-17T13:13:23;26.30;67.30
2899;DHT22;1459;50.864;6.438;2022-07-17T13:15:50;26.50;66.70
2899;DHT22;1459;50.864;6.438;2022-07-17T13:18:17;26.50;67.20
2899;DHT22;1459;50.864;6.438;2022-07-17T13:20:43;26.60;65.10
2899;DHT22;1459;50.864;6.438;2022-07-17T13:23:11;26.70;65.70
2899;DHT22;1459;50.864;6.438;2022-07-17T13:25:39;26.70;65.70
2899;DHT22;1459;50.864;6.438;2022-07-17T13:28:07;26.80;64.30
2899;DHT22;1459;50.864;6.438;2022-07-17T13:30:35;26.90;63.70
2899;DHT22;1459;50.864;6.438;2022-07-17T13:33:02;26.90;63.30
2899;DHT22;1459;50.864;6.438;2022-07-17T13:35:30;26.90;63.60
2899;DHT22;1459;50.864;6.438;2022-07-17T13:38:00;27.10;62.20
2899;DHT22;1459;50.864;6.438;2022-07-17T13:40:29;27.10;61.20
2899;DHT22;1459;50.864;6.438;2022-07-17T13:42:56;27.20;61.10
2899;DHT22;1459;50.864;6.438;2022-07-17T13:45:25;27.30;60.00
2899;DHT22;1459;50.864;6.438;2022-07-17T13:47:52;27.30;60.00
2899;DHT22;1459;50.864;6.438;2022-07-17T13:50:19;27.40;59.80
2899;DHT22;1459;50.864;6.438;2022-07-17T13:52:46;27.50;59.30
2899;DHT22;1459;50.864;6.438;2022-07-17T13:55:14;27.50;58.10
2899;DHT22;1459;50.864;6.438;2022-07-17T13:57:41;27.50;57.30
2899;DHT22;1459;50.864;6.438;2022-07-17T14:00:09;27.50;57.30
2899;DHT22;1459;50.864;6.438;2022-07-17T14:02:38;27.40;57.90
2899;DHT22;1459;50.864;6.438;2022-07-17T14:05:07;27.40;55.20
2899;DHT22;1459;50.864;6.438;2022-07-17T14:07:35;27.50;54.80
2899;DHT22;1459;50.864;6.438;2022-07-17T14:10:03;27.50;53.00
2899;DHT22;1459;50.864;6.438;2022-07-17T14:12:30;27.40;52.70
2899;DHT22;1459;50.864;6.438;2022-07-17T14:14:57;27.50;53.00
2899;DHT22;1459;50.864;6.438;2022-07-17T14:17:25;27.40;50.70
2899;DHT22;1459;50.864;6.438;2022-07-17T14:19:53;27.40;49.40
2899;DHT22;1459;50.864;6.438;2022-07-17T14:22:20;27.40;48.30
2899;DHT22;1459;50.864;6.438;2022-07-17T14:24:47;27.50;47.30
2899;DHT22;1459;50.864;6.438;2022-07-17T14:27:14;27.50;47.70
2899;DHT22;1459;50.864;6.438;2022-07-17T14:29:41;27.60;47.90
2899;DHT22;1459;50.864;6.438;2022-07-17T14:32:08;27.70;47.20
2899;DHT22;1459;50.864;6.438;2022-07-17T14:34:35;27.90;48.00
2899;DHT22;1459;50.864;6.438;2022-07-17T15:36:08;45.00;24.70
2899;DHT22;1459;50.864;6.438;2022-07-17T15:38:36;44.80;25.40
2899;DHT22;1459;50.864;6.438;2022-07-17T15:41:03;44.30;25.90
2899;DHT22;1459;50.864;6.438;2022-07-17T15:43:30;44.00;25.70
2899;DHT22;1459;50.864;6.438;2022-07-17T15:45:59;43.70;25.80
2899;DHT22;1459;50.864;6.438;2022-07-17T15:48:26;43.90;25.70
2899;DHT22;1459;50.864;6.438;2022-07-17T15:53:20;44.60;25.20
2899;DHT22;1459;50.864;6.438;2022-07-17T15:55:47;44.50;25.10
2899;DHT22;1459;50.864;6.438;2022-07-17T15:58:14;44.30;25.00
2899;DHT22;1459;50.864;6.438;2022-07-17T16:00:42;44.40;25.00
2899;DHT22;1459;50.864;6.438;2022-07-17T16:08:05;46.00;24.60
2899;DHT22;1459;50.864;6.438;2022-07-17T16:10:33;46.40;24.40
2899;DHT22;1459;50.864;6.438;2022-07-17T16:52:23;45.40;23.00
2899;DHT22;1459;50.864;6.438;2022-07-17T16:54:51;45.00;23.80
2899;DHT22;1459;50.864;6.438;2022-07-17T17:17:00;40.80;56.60
2899;DHT22;1459;50.864;6.438;2022-07-17T17:19:27;40.60;45.70
2899;DHT22;1459;50.864;6.438;2022-07-17T17:21:54;40.60;44.80
2899;DHT22;1459;50.864;6.438;2022-07-17T17:24:21;40.80;45.70
2899;DHT22;1459;50.864;6.438;2022-07-17T17:26:48;41.00;50.80
2899;DHT22;1459;50.864;6.438;2022-07-17T17:29:16;40.70;50.10
2899;DHT22;1459;50.864;6.438;2022-07-17T17:31:43;40.30;26.00
2899;DHT22;1459;50.864;6.438;2022-07-17T17:34:10;40.10;26.20
2899;DHT22;1459;50.864;6.438;2022-07-17T17:36:37;39.50;26.20
2899;DHT22;1459;50.864;6.438;2022-07-17T17:39:04;39.30;26.80
2899;DHT22;1459;50.864;6.438;2022-07-17T17:41:31;39.00;26.80
2899;DHT22;1459;50.864;6.438;2022-07-17T17:43:58;38.70;27.00
2899;DHT22;1459;50.864;6.438;2022-07-17T17:46:27;38.40;45.40
2899;DHT22;1459;50.864;6.438;2022-07-17T17:48:54;38.40;44.70
2899;DHT22;1459;50.864;6.438;2022-07-17T17:51:21;38.30;42.90
2899;DHT22;1459;50.864;6.438;2022-07-17T17:53:55;38.40;27.50
2899;DHT22;1459;50.864;6.438;2022-07-17T18:01:17;39.30;32.20
2899;DHT22;1459;50.864;6.438;2022-07-17T18:03:45;39.40;47.20
2899;DHT22;1459;50.864;6.438;2022-07-17T18:06:12;39.30;47.50
2899;DHT22;1459;50.864;6.438;2022-07-17T18:08:41;39.10;37.70
2899;DHT22;1459;50.864;6.438;2022-07-17T18:11:07;39.00;27.20
2899;DHT22;1459;50.864;6.438;2022-07-17T18:13:35;38.60;27.50
2899;DHT22;1459;50.864;6.438;2022-07-17T18:16:04;38.60;27.70
2899;DHT22;1459;50.864;6.438;2022-07-17T18:18:31;38.60;28.60
2899;DHT22;1459;50.864;6.438;2022-07-17T18:20:59;38.60;28.40
2899;DHT22;1459;50.864;6.438;2022-07-17T18:23:28;38.60;28.80
2899;DHT22;1459;50.864;6.438;2022-07-17T18:25:57;38.60;27.30
